If you wish to contribute or participate in the discussions about articles you are invited to join SKYbrary as a registered user

 Actions

Albury Airport

From SKYbrary Wiki

YMAY /
Revision as of 13:18, 6 December 2018 by Timo.Kouwenhoven (talk | contribs)
(diff) ← Older revision | Latest revision (diff) | Newer revision → (diff)
Airport
ICAO: YMAY – IATA: ABX
Summary
Name Albury Airport
Region Asia and Pacific
Territory Australia AU.gif
Location , New South Wales
Serving Albury
Elevation 164.287 m
539 ft
539 ft164.287 m
Type medium airport
Coordinates 36° 4' 4.01" S, 146° 57' 29.02" E
Runways
Designator Length Width Surface ROPS
7/25 1900 m6,233.596 ft
30 m98.425 ft
ASP /


METAR
Observation YMAY 222300Z AUTO 24008KT 9999 // SCT015 SCT029 BKN037 08/05 Q1024
Station Albury Airport
Date/Time 22 September 2019 23:00:00
Wind direction 240°
Wind speed 08 kts
Lowest cloud amount scattered clouds
Temperature 8°C
Dew point 5°C
Humidity 81%
QNH 1024 hPa
Weather condition n/a